Etusivu
METAR-TAF:

METAR-TAF

Lentoasemat :

Roseau, Dominica

Leveyspiiri: 15-32N, Pituuspiiri: 061-24W, korkeus merenpinnasta: 5 m

Tämänhetkinen sää

Tämä raportti tehtiin 15 tuntia ja 15 minuuttia sitten, kello 20.00 UTC
Tuuli 5 kn kaakosta puuskistuen 15 kn:hen
Lämpötila 30°C
Kosteus 55%
Ilmanpaine 1011 hPa
Näkyvyys 10 km tai enemmän
Muutamia pilviä 1800 ft:n korkeudessa
Hajonneita pilviä 6100 ft:n korkeudessa

METAR: TDCF 202000Z 13005G15KT 9999 FEW018 BKN061 30/20 Q1011

Aika: 07:15 (11:15 UTC)


TAF: puuttuu

Säähavainnot ja -ennusteet yli 4000 lentoasemalta (METAR- ja TAF-raportit).

Käytössä olevat sääasemat on merkitty karttaan keltaisilla ja punaisilla pisteillä.

Aseta hiiri pisteen päälle nähdäksesi sääaseman nimen.

Klikkaa sitten nähdäksesi säähavainnot ja -ennusteet.

Kartan vaihtaminen: klikkaa mustalla rastilla varustettuja vihreitä pisteitä, niin voit zoomata sisään; viivalla varustettua vihreää pistettä, niin voit zoomata ulos tai vihreitä nuolia, niin pääset viereisille kartoille.


METAR-TAF: